sensor_id;sensor_type;location;lat;lon;timestamp;P1;durP1;ratioP1;P2;durP2;ratioP2
68126;SDS011;54931;52.098;21.006;2023-02-28T00:01:42;99.60;;;32.30;;
68126;SDS011;54931;52.098;21.006;2023-02-28T00:04:10;86.60;;;30.00;;
68126;SDS011;54931;52.098;21.006;2023-02-28T00:06:38;91.40;;;31.00;;
68126;SDS011;54931;52.098;21.006;2023-02-28T00:09:08;85.20;;;28.50;;
68126;SDS011;54931;52.098;21.006;2023-02-28T00:11:37;81.60;;;27.50;;
68126;SDS011;54931;52.098;21.006;2023-02-28T00:14:06;81.80;;;27.60;;
68126;SDS011;54931;52.098;21.006;2023-02-28T00:16:34;84.50;;;27.00;;
68126;SDS011;54931;52.098;21.006;2023-02-28T00:19:02;50.70;;;17.90;;
68126;SDS011;54931;52.098;21.006;2023-02-28T00:21:29;56.00;;;18.80;;
68126;SDS011;54931;52.098;21.006;2023-02-28T00:23:57;63.50;;;20.10;;
68126;SDS011;54931;52.098;21.006;2023-02-28T00:26:25;69.00;;;20.40;;
68126;SDS011;54931;52.098;21.006;2023-02-28T00:28:53;74.00;;;25.30;;
68126;SDS011;54931;52.098;21.006;2023-02-28T00:31:21;107.60;;;32.90;;
68126;SDS011;54931;52.098;21.006;2023-02-28T00:33:48;79.90;;;27.20;;
68126;SDS011;54931;52.098;21.006;2023-02-28T00:36:18;91.60;;;26.70;;
68126;SDS011;54931;52.098;21.006;2023-02-28T00:38:46;71.10;;;24.80;;
68126;SDS011;54931;52.098;21.006;2023-02-28T00:41:13;60.50;;;23.00;;
68126;SDS011;54931;52.098;21.006;2023-02-28T00:43:41;61.10;;;19.70;;
68126;SDS011;54931;52.098;21.006;2023-02-28T00:46:09;97.70;;;28.10;;
68126;SDS011;54931;52.098;21.006;2023-02-28T00:48:37;77.80;;;26.70;;
68126;SDS011;54931;52.098;21.006;2023-02-28T00:51:05;86.40;;;29.30;;
68126;SDS011;54931;52.098;21.006;2023-02-28T00:53:33;87.90;;;25.50;;
68126;SDS011;54931;52.098;21.006;2023-02-28T00:58:30;67.00;;;23.10;;
68126;SDS011;54931;52.098;21.006;2023-02-28T01:00:57;71.30;;;23.90;;
68126;SDS011;54931;52.098;21.006;2023-02-28T01:03:25;80.20;;;24.40;;
68126;SDS011;54931;52.098;21.006;2023-02-28T01:05:53;74.00;;;23.90;;
68126;SDS011;54931;52.098;21.006;2023-02-28T01:08:21;84.70;;;24.80;;
68126;SDS011;54931;52.098;21.006;2023-02-28T01:10:49;79.70;;;23.60;;
68126;SDS011;54931;52.098;21.006;2023-02-28T01:13:18;68.80;;;22.00;;
68126;SDS011;54931;52.098;21.006;2023-02-28T01:15:50;76.00;;;23.20;;
68126;SDS011;54931;52.098;21.006;2023-02-28T01:18:19;83.20;;;23.60;;
68126;SDS011;54931;52.098;21.006;2023-02-28T01:20:48;76.60;;;24.70;;
68126;SDS011;54931;52.098;21.006;2023-02-28T01:23:20;78.70;;;23.10;;
68126;SDS011;54931;52.098;21.006;2023-02-28T01:25:50;73.10;;;23.20;;
68126;SDS011;54931;52.098;21.006;2023-02-28T01:28:18;80.70;;;24.10;;
68126;SDS011;54931;52.098;21.006;2023-02-28T01:30:50;92.20;;;26.10;;
68126;SDS011;54931;52.098;21.006;2023-02-28T01:33:18;78.40;;;24.40;;
68126;SDS011;54931;52.098;21.006;2023-02-28T01:35:46;81.40;;;24.00;;
68126;SDS011;54931;52.098;21.006;2023-02-28T01:38:15;77.10;;;23.90;;
68126;SDS011;54931;52.098;21.006;2023-02-28T01:40:42;76.50;;;23.90;;
68126;SDS011;54931;52.098;21.006;2023-02-28T01:46:11;92.90;;;24.80;;
68126;SDS011;54931;52.098;21.006;2023-02-28T01:48:51;80.20;;;23.70;;
68126;SDS011;54931;52.098;21.006;2023-02-28T01:51:30;85.50;;;26.70;;
68126;SDS011;54931;52.098;21.006;2023-02-28T01:54:07;94.70;;;28.00;;
68126;SDS011;54931;52.098;21.006;2023-02-28T01:56:49;88.60;;;26.00;;
68126;SDS011;54931;52.098;21.006;2023-02-28T02:02:33;78.80;;;22.70;;
68126;SDS011;54931;52.098;21.006;2023-02-28T02:05:10;92.90;;;24.70;;
68126;SDS011;54931;52.098;21.006;2023-02-28T02:07:43;85.00;;;24.80;;
68126;SDS011;54931;52.098;21.006;2023-02-28T02:10:27;85.30;;;25.80;;
68126;SDS011;54931;52.098;21.006;2023-02-28T02:23:09;83.70;;;23.50;;
68126;SDS011;54931;52.098;21.006;2023-02-28T02:29:08;100.80;;;27.40;;
68126;SDS011;54931;52.098;21.006;2023-02-28T02:42:59;94.40;;;26.20;;
68126;SDS011;54931;52.098;21.006;2023-02-28T02:48:16;96.90;;;27.70;;
68126;SDS011;54931;52.098;21.006;2023-02-28T02:50:57;82.10;;;24.50;;
68126;SDS011;54931;52.098;21.006;2023-02-28T02:53:32;84.20;;;26.40;;
68126;SDS011;54931;52.098;21.006;2023-02-28T02:56:05;95.90;;;27.60;;
68126;SDS011;54931;52.098;21.006;2023-02-28T02:58:39;102.70;;;28.10;;
68126;SDS011;54931;52.098;21.006;2023-02-28T03:01:14;93.60;;;27.20;;
68126;SDS011;54931;52.098;21.006;2023-02-28T03:04:00;103.80;;;28.10;;
68126;SDS011;54931;52.098;21.006;2023-02-28T03:06:32;93.10;;;27.90;;
68126;SDS011;54931;52.098;21.006;2023-02-28T03:09:00;93.70;;;27.20;;
68126;SDS011;54931;52.098;21.006;2023-02-28T03:11:29;101.30;;;28.10;;
68126;SDS011;54931;52.098;21.006;2023-02-28T03:16:59;95.60;;;27.90;;
68126;SDS011;54931;52.098;21.006;2023-02-28T03:19:47;97.60;;;26.40;;
68126;SDS011;54931;52.098;21.006;2023-02-28T03:28:20;93.30;;;27.20;;
68126;SDS011;54931;52.098;21.006;2023-02-28T03:30:57;112.70;;;31.70;;
68126;SDS011;54931;52.098;21.006;2023-02-28T03:36:57;87.30;;;25.00;;
68126;SDS011;54931;52.098;21.006;2023-02-28T03:39:42;91.00;;;26.70;;
68126;SDS011;54931;52.098;21.006;2023-02-28T03:42:19;90.70;;;26.80;;
68126;SDS011;54931;52.098;21.006;2023-02-28T03:45:32;105.40;;;27.90;;
68126;SDS011;54931;52.098;21.006;2023-02-28T03:47:53;98.50;;;26.90;;
68126;SDS011;54931;52.098;21.006;2023-02-28T03:50:38;88.00;;;25.60;;
68126;SDS011;54931;52.098;21.006;2023-02-28T03:53:13;101.50;;;26.80;;
68126;SDS011;54931;52.098;21.006;2023-02-28T03:55:51;97.70;;;27.00;;
68126;SDS011;54931;52.098;21.006;2023-02-28T03:58:41;90.10;;;25.70;;
68126;SDS011;54931;52.098;21.006;2023-02-28T04:01:30;99.70;;;26.20;;
68126;SDS011;54931;52.098;21.006;2023-02-28T04:04:04;40.90;;;12.20;;
68126;SDS011;54931;52.098;21.006;2023-02-28T04:06:33;65.00;;;19.90;;
68126;SDS011;54931;52.098;21.006;2023-02-28T04:09:03;69.10;;;21.00;;
68126;SDS011;54931;52.098;21.006;2023-02-28T04:14:17;80.00;;;23.10;;
68126;SDS011;54931;52.098;21.006;2023-02-28T04:16:47;98.50;;;26.50;;
68126;SDS011;54931;52.098;21.006;2023-02-28T04:19:15;84.40;;;23.70;;
68126;SDS011;54931;52.098;21.006;2023-02-28T04:21:46;82.90;;;23.30;;
68126;SDS011;54931;52.098;21.006;2023-02-28T04:24:20;79.80;;;25.10;;
68126;SDS011;54931;52.098;21.006;2023-02-28T04:26:52;95.00;;;26.50;;
68126;SDS011;54931;52.098;21.006;2023-02-28T04:29:24;73.00;;;23.50;;
68126;SDS011;54931;52.098;21.006;2023-02-28T04:31:55;87.40;;;25.10;;
68126;SDS011;54931;52.098;21.006;2023-02-28T04:34:29;53.60;;;14.60;;
68126;SDS011;54931;52.098;21.006;2023-02-28T04:36:58;79.70;;;22.80;;
68126;SDS011;54931;52.098;21.006;2023-02-28T04:39:29;83.20;;;23.40;;
68126;SDS011;54931;52.098;21.006;2023-02-28T04:41:57;76.50;;;22.90;;
68126;SDS011;54931;52.098;21.006;2023-02-28T04:44:24;77.20;;;23.90;;
68126;SDS011;54931;52.098;21.006;2023-02-28T04:46:53;71.80;;;21.20;;
68126;SDS011;54931;52.098;21.006;2023-02-28T04:49:21;71.50;;;22.60;;
68126;SDS011;54931;52.098;21.006;2023-02-28T04:51:49;81.80;;;24.50;;
68126;SDS011;54931;52.098;21.006;2023-02-28T04:54:18;79.70;;;23.10;;
68126;SDS011;54931;52.098;21.006;2023-02-28T04:56:46;75.00;;;22.90;;
68126;SDS011;54931;52.098;21.006;2023-02-28T04:59:17;75.30;;;23.30;;
68126;SDS011;54931;52.098;21.006;2023-02-28T05:01:48;70.20;;;21.40;;
68126;SDS011;54931;52.098;21.006;2023-02-28T05:04:18;55.40;;;17.40;;
68126;SDS011;54931;52.098;21.006;2023-02-28T05:06:45;34.10;;;12.00;;
68126;SDS011;54931;52.098;21.006;2023-02-28T05:09:13;37.80;;;13.40;;
68126;SDS011;54931;52.098;21.006;2023-02-28T05:11:42;32.00;;;12.90;;
68126;SDS011;54931;52.098;21.006;2023-02-28T05:14:13;47.40;;;14.30;;
68126;SDS011;54931;52.098;21.006;2023-02-28T05:16:42;48.30;;;16.80;;
68126;SDS011;54931;52.098;21.006;2023-02-28T05:19:10;60.10;;;18.20;;
68126;SDS011;54931;52.098;21.006;2023-02-28T05:21:41;67.30;;;20.00;;
68126;SDS011;54931;52.098;21.006;2023-02-28T05:24:17;76.50;;;21.20;;
68126;SDS011;54931;52.098;21.006;2023-02-28T05:26:53;70.40;;;20.20;;
68126;SDS011;54931;52.098;21.006;2023-02-28T05:29:22;66.70;;;20.60;;
68126;SDS011;54931;52.098;21.006;2023-02-28T05:31:51;67.60;;;21.70;;
68126;SDS011;54931;52.098;21.006;2023-02-28T05:34:20;72.50;;;22.60;;
68126;SDS011;54931;52.098;21.006;2023-02-28T05:36:48;81.90;;;23.00;;
68126;SDS011;54931;52.098;21.006;2023-02-28T05:39:16;78.90;;;24.70;;
68126;SDS011;54931;52.098;21.006;2023-02-28T05:41:45;74.00;;;22.20;;
68126;SDS011;54931;52.098;21.006;2023-02-28T05:44:12;80.10;;;22.90;;
68126;SDS011;54931;52.098;21.006;2023-02-28T05:46:41;79.40;;;22.20;;
68126;SDS011;54931;52.098;21.006;2023-02-28T05:49:09;82.50;;;22.30;;
68126;SDS011;54931;52.098;21.006;2023-02-28T05:51:37;80.00;;;23.30;;
68126;SDS011;54931;52.098;21.006;2023-02-28T05:54:07;76.20;;;22.90;;
68126;SDS011;54931;52.098;21.006;2023-02-28T05:56:36;82.50;;;22.90;;
68126;SDS011;54931;52.098;21.006;2023-02-28T05:59:07;72.50;;;22.20;;
68126;SDS011;54931;52.098;21.006;2023-02-28T06:01:38;72.10;;;21.40;;
68126;SDS011;54931;52.098;21.006;2023-02-28T06:04:09;79.40;;;22.70;;
68126;SDS011;54931;52.098;21.006;2023-02-28T06:06:38;83.20;;;24.70;;
68126;SDS011;54931;52.098;21.006;2023-02-28T06:09:07;78.60;;;23.20;;
68126;SDS011;54931;52.098;21.006;2023-02-28T06:11:36;75.00;;;24.00;;
68126;SDS011;54931;52.098;21.006;2023-02-28T06:14:04;86.80;;;26.10;;
68126;SDS011;54931;52.098;21.006;2023-02-28T06:16:34;86.10;;;25.30;;
68126;SDS011;54931;52.098;21.006;2023-02-28T06:19:03;89.40;;;26.10;;
68126;SDS011;54931;52.098;21.006;2023-02-28T06:21:32;88.00;;;24.60;;
68126;SDS011;54931;52.098;21.006;2023-02-28T06:24:00;81.90;;;23.90;;
68126;SDS011;54931;52.098;21.006;2023-02-28T06:26:28;84.40;;;23.80;;
68126;SDS011;54931;52.098;21.006;2023-02-28T06:28:57;87.00;;;23.60;;
68126;SDS011;54931;52.098;21.006;2023-02-28T06:31:26;106.00;;;32.70;;
68126;SDS011;54931;52.098;21.006;2023-02-28T06:33:56;91.80;;;25.20;;
68126;SDS011;54931;52.098;21.006;2023-02-28T06:36:25;74.10;;;23.90;;
68126;SDS011;54931;52.098;21.006;2023-02-28T06:38:53;79.00;;;23.70;;
68126;SDS011;54931;52.098;21.006;2023-02-28T06:41:23;77.90;;;21.70;;
68126;SDS011;54931;52.098;21.006;2023-02-28T06:43:53;72.40;;;21.70;;
68126;SDS011;54931;52.098;21.006;2023-02-28T06:46:22;60.80;;;18.60;;
68126;SDS011;54931;52.098;21.006;2023-02-28T06:48:50;60.90;;;19.90;;
68126;SDS011;54931;52.098;21.006;2023-02-28T06:51:20;60.90;;;19.30;;
68126;SDS011;54931;52.098;21.006;2023-02-28T06:53:50;51.40;;;17.70;;
68126;SDS011;54931;52.098;21.006;2023-02-28T06:56:19;46.60;;;16.00;;
68126;SDS011;54931;52.098;21.006;2023-02-28T06:58:49;30.30;;;11.90;;
68126;SDS011;54931;52.098;21.006;2023-02-28T07:01:20;38.80;;;13.90;;
68126;SDS011;54931;52.098;21.006;2023-02-28T07:03:51;41.80;;;15.20;;
68126;SDS011;54931;52.098;21.006;2023-02-28T07:06:23;38.10;;;15.80;;
68126;SDS011;54931;52.098;21.006;2023-02-28T07:08:52;49.90;;;19.90;;
68126;SDS011;54931;52.098;21.006;2023-02-28T07:11:23;37.80;;;16.20;;
68126;SDS011;54931;52.098;21.006;2023-02-28T07:13:54;42.70;;;17.40;;
68126;SDS011;54931;52.098;21.006;2023-02-28T07:16:25;32.60;;;14.50;;
68126;SDS011;54931;52.098;21.006;2023-02-28T07:18:54;27.80;;;11.60;;
68126;SDS011;54931;52.098;21.006;2023-02-28T07:21:22;28.40;;;12.90;;
68126;SDS011;54931;52.098;21.006;2023-02-28T07:23:51;32.90;;;14.80;;
68126;SDS011;54931;52.098;21.006;2023-02-28T07:26:20;29.80;;;13.30;;
68126;SDS011;54931;52.098;21.006;2023-02-28T07:28:48;25.50;;;12.10;;
68126;SDS011;54931;52.098;21.006;2023-02-28T07:31:18;33.10;;;14.20;;
68126;SDS011;54931;52.098;21.006;2023-02-28T07:33:47;34.70;;;14.10;;
68126;SDS011;54931;52.098;21.006;2023-02-28T07:36:17;25.40;;;11.30;;
68126;SDS011;54931;52.098;21.006;2023-02-28T07:38:48;25.90;;;13.30;;
68126;SDS011;54931;52.098;21.006;2023-02-28T07:41:19;31.80;;;14.60;;
68126;SDS011;54931;52.098;21.006;2023-02-28T07:43:48;29.70;;;13.00;;
68126;SDS011;54931;52.098;21.006;2023-02-28T07:46:17;18.80;;;8.30;;
68126;SDS011;54931;52.098;21.006;2023-02-28T07:48:45;18.20;;;9.40;;
68126;SDS011;54931;52.098;21.006;2023-02-28T07:51:13;13.40;;;5.80;;
68126;SDS011;54931;52.098;21.006;2023-02-28T07:53:42;15.30;;;8.00;;
68126;SDS011;54931;52.098;21.006;2023-02-28T07:56:10;27.90;;;14.30;;
68126;SDS011;54931;52.098;21.006;2023-02-28T07:58:38;28.80;;;14.10;;
68126;SDS011;54931;52.098;21.006;2023-02-28T08:01:08;20.00;;;9.50;;
68126;SDS011;54931;52.098;21.006;2023-02-28T08:03:39;19.10;;;8.20;;
68126;SDS011;54931;52.098;21.006;2023-02-28T08:06:15;25.10;;;12.70;;
68126;SDS011;54931;52.098;21.006;2023-02-28T08:08:46;27.70;;;13.40;;
68126;SDS011;54931;52.098;21.006;2023-02-28T08:11:15;11.40;;;6.40;;
68126;SDS011;54931;52.098;21.006;2023-02-28T08:13:45;19.00;;;9.90;;
68126;SDS011;54931;52.098;21.006;2023-02-28T08:18:45;25.20;;;12.40;;
68126;SDS011;54931;52.098;21.006;2023-02-28T15:31:44;38.40;;;17.10;;
68126;SDS011;54931;52.098;21.006;2023-02-28T15:34:21;122.10;;;35.00;;
68126;SDS011;54931;52.098;21.006;2023-02-28T15:36:56;118.00;;;33.20;;
68126;SDS011;54931;52.098;21.006;2023-02-28T15:39:28;49.00;;;19.50;;
68126;SDS011;54931;52.098;21.006;2023-02-28T15:42:18;59.20;;;22.40;;
68126;SDS011;54931;52.098;21.006;2023-02-28T15:44:49;28.00;;;13.40;;
68126;SDS011;54931;52.098;21.006;2023-02-28T15:47:22;53.50;;;21.40;;
68126;SDS011;54931;52.098;21.006;2023-02-28T15:50:09;44.90;;;17.50;;
68126;SDS011;54931;52.098;21.006;2023-02-28T15:52:44;55.40;;;21.80;;
68126;SDS011;54931;52.098;21.006;2023-02-28T15:55:22;196.90;;;58.70;;
68126;SDS011;54931;52.098;21.006;2023-02-28T15:57:57;318.30;;;96.80;;
68126;SDS011;54931;52.098;21.006;2023-02-28T16:03:01;87.20;;;33.90;;
68126;SDS011;54931;52.098;21.006;2023-02-28T16:09:15;293.40;;;82.50;;
68126;SDS011;54931;52.098;21.006;2023-02-28T16:11:49;160.50;;;50.60;;
68126;SDS011;54931;52.098;21.006;2023-02-28T16:14:22;92.40;;;30.60;;
68126;SDS011;54931;52.098;21.006;2023-02-28T16:16:57;43.50;;;16.10;;
68126;SDS011;54931;52.098;21.006;2023-02-28T16:19:41;59.80;;;23.70;;
68126;SDS011;54931;52.098;21.006;2023-02-28T16:22:10;104.70;;;39.30;;
68126;SDS011;54931;52.098;21.006;2023-02-28T16:24:39;73.30;;;26.70;;
68126;SDS011;54931;52.098;21.006;2023-02-28T16:27:18;75.10;;;28.10;;
68126;SDS011;54931;52.098;21.006;2023-02-28T16:29:50;58.20;;;22.60;;
68126;SDS011;54931;52.098;21.006;2023-02-28T16:32:20;69.30;;;29.60;;
68126;SDS011;54931;52.098;21.006;2023-02-28T16:34:49;72.80;;;31.50;;
68126;SDS011;54931;52.098;21.006;2023-02-28T16:37:18;88.00;;;36.30;;
68126;SDS011;54931;52.098;21.006;2023-02-28T16:39:48;89.90;;;36.00;;
68126;SDS011;54931;52.098;21.006;2023-02-28T16:42:28;63.50;;;26.20;;
68126;SDS011;54931;52.098;21.006;2023-02-28T16:44:57;77.30;;;27.30;;
68126;SDS011;54931;52.098;21.006;2023-02-28T16:47:27;63.90;;;24.60;;
68126;SDS011;54931;52.098;21.006;2023-02-28T16:49:57;111.40;;;43.20;;
68126;SDS011;54931;52.098;21.006;2023-02-28T16:52:25;91.10;;;35.00;;
68126;SDS011;54931;52.098;21.006;2023-02-28T16:54:53;83.20;;;30.50;;
68126;SDS011;54931;52.098;21.006;2023-02-28T16:57:23;42.50;;;17.80;;
68126;SDS011;54931;52.098;21.006;2023-02-28T16:59:52;39.30;;;15.00;;
68126;SDS011;54931;52.098;21.006;2023-02-28T17:02:20;56.90;;;21.00;;
68126;SDS011;54931;52.098;21.006;2023-02-28T17:04:48;54.60;;;20.30;;
68126;SDS011;54931;52.098;21.006;2023-02-28T17:07:17;53.60;;;20.10;;
68126;SDS011;54931;52.098;21.006;2023-02-28T17:09:45;80.00;;;28.30;;
68126;SDS011;54931;52.098;21.006;2023-02-28T17:12:13;131.70;;;47.00;;
68126;SDS011;54931;52.098;21.006;2023-02-28T17:14:42;102.40;;;32.90;;
68126;SDS011;54931;52.098;21.006;2023-02-28T17:17:17;156.60;;;56.80;;
68126;SDS011;54931;52.098;21.006;2023-02-28T17:19:48;491.00;;;195.40;;
68126;SDS011;54931;52.098;21.006;2023-02-28T17:22:16;170.20;;;60.20;;
68126;SDS011;54931;52.098;21.006;2023-02-28T17:24:44;161.30;;;56.90;;
68126;SDS011;54931;52.098;21.006;2023-02-28T17:27:12;249.50;;;80.40;;
68126;SDS011;54931;52.098;21.006;2023-02-28T17:29:40;133.10;;;45.20;;
68126;SDS011;54931;52.098;21.006;2023-02-28T17:32:09;106.40;;;37.00;;
68126;SDS011;54931;52.098;21.006;2023-02-28T17:34:37;104.80;;;37.20;;
68126;SDS011;54931;52.098;21.006;2023-02-28T17:37:09;419.50;;;154.00;;
68126;SDS011;54931;52.098;21.006;2023-02-28T17:39:37;150.90;;;51.80;;
68126;SDS011;54931;52.098;21.006;2023-02-28T17:42:05;95.00;;;33.90;;
68126;SDS011;54931;52.098;21.006;2023-02-28T17:44:32;88.30;;;30.10;;
68126;SDS011;54931;52.098;21.006;2023-02-28T17:47:01;103.00;;;34.10;;
68126;SDS011;54931;52.098;21.006;2023-02-28T17:49:29;93.20;;;29.40;;
68126;SDS011;54931;52.098;21.006;2023-02-28T17:51:57;99.70;;;30.60;;
68126;SDS011;54931;52.098;21.006;2023-02-28T17:54:24;140.50;;;42.30;;
68126;SDS011;54931;52.098;21.006;2023-02-28T17:56:52;159.90;;;48.50;;
68126;SDS011;54931;52.098;21.006;2023-02-28T17:59:20;275.30;;;76.30;;
68126;SDS011;54931;52.098;21.006;2023-02-28T18:01:48;304.50;;;88.30;;
68126;SDS011;54931;52.098;21.006;2023-02-28T18:04:16;273.50;;;74.20;;
68126;SDS011;54931;52.098;21.006;2023-02-28T18:06:44;207.20;;;58.60;;
68126;SDS011;54931;52.098;21.006;2023-02-28T18:09:19;149.40;;;45.10;;
68126;SDS011;54931;52.098;21.006;2023-02-28T18:11:54;132.00;;;38.10;;
68126;SDS011;54931;52.098;21.006;2023-02-28T18:14:24;79.70;;;25.10;;
68126;SDS011;54931;52.098;21.006;2023-02-28T18:16:54;95.90;;;29.40;;
68126;SDS011;54931;52.098;21.006;2023-02-28T18:19:23;72.80;;;24.10;;
68126;SDS011;54931;52.098;21.006;2023-02-28T18:21:52;81.90;;;27.20;;
68126;SDS011;54931;52.098;21.006;2023-02-28T18:24:22;64.40;;;24.10;;
68126;SDS011;54931;52.098;21.006;2023-02-28T18:26:51;95.20;;;33.00;;
68126;SDS011;54931;52.098;21.006;2023-02-28T18:29:24;88.40;;;29.10;;
68126;SDS011;54931;52.098;21.006;2023-02-28T18:31:54;67.90;;;22.40;;
68126;SDS011;54931;52.098;21.006;2023-02-28T18:34:24;78.30;;;27.40;;
68126;SDS011;54931;52.098;21.006;2023-02-28T18:36:52;82.50;;;28.00;;
68126;SDS011;54931;52.098;21.006;2023-02-28T18:39:20;139.10;;;39.80;;
68126;SDS011;54931;52.098;21.006;2023-02-28T18:41:48;143.40;;;45.50;;
68126;SDS011;54931;52.098;21.006;2023-02-28T18:44:16;95.40;;;28.80;;
68126;SDS011;54931;52.098;21.006;2023-02-28T18:46:44;76.70;;;24.70;;
68126;SDS011;54931;52.098;21.006;2023-02-28T18:49:12;100.00;;;31.10;;
68126;SDS011;54931;52.098;21.006;2023-02-28T18:51:40;74.00;;;22.90;;
68126;SDS011;54931;52.098;21.006;2023-02-28T18:54:14;69.60;;;21.70;;
68126;SDS011;54931;52.098;21.006;2023-02-28T18:56:43;54.50;;;19.50;;
68126;SDS011;54931;52.098;21.006;2023-02-28T18:59:11;77.30;;;24.50;;
68126;SDS011;54931;52.098;21.006;2023-02-28T19:01:40;104.90;;;32.80;;
68126;SDS011;54931;52.098;21.006;2023-02-28T19:04:11;151.90;;;45.60;;
68126;SDS011;54931;52.098;21.006;2023-02-28T19:06:40;118.70;;;35.20;;
68126;SDS011;54931;52.098;21.006;2023-02-28T19:09:08;81.80;;;26.20;;
68126;SDS011;54931;52.098;21.006;2023-02-28T19:11:37;96.60;;;30.60;;
68126;SDS011;54931;52.098;21.006;2023-02-28T19:14:06;105.40;;;31.70;;
68126;SDS011;54931;52.098;21.006;2023-02-28T19:16:35;124.20;;;36.60;;
68126;SDS011;54931;52.098;21.006;2023-02-28T19:19:03;140.10;;;38.50;;
68126;SDS011;54931;52.098;21.006;2023-02-28T19:21:32;157.20;;;44.90;;
68126;SDS011;54931;52.098;21.006;2023-02-28T19:24:03;189.40;;;50.20;;
68126;SDS011;54931;52.098;21.006;2023-02-28T19:26:32;114.00;;;31.90;;
68126;SDS011;54931;52.098;21.006;2023-02-28T19:29:04;205.70;;;56.20;;
68126;SDS011;54931;52.098;21.006;2023-02-28T19:31:32;237.40;;;67.70;;
68126;SDS011;54931;52.098;21.006;2023-02-28T19:34:00;104.90;;;30.90;;
68126;SDS011;54931;52.098;21.006;2023-02-28T19:36:28;123.70;;;39.10;;
68126;SDS011;54931;52.098;21.006;2023-02-28T19:38:57;148.20;;;43.90;;
68126;SDS011;54931;52.098;21.006;2023-02-28T19:41:25;176.40;;;49.00;;
68126;SDS011;54931;52.098;21.006;2023-02-28T19:43:53;249.80;;;71.10;;
68126;SDS011;54931;52.098;21.006;2023-02-28T19:46:21;378.50;;;110.40;;
68126;SDS011;54931;52.098;21.006;2023-02-28T19:51:21;261.30;;;79.10;;
68126;SDS011;54931;52.098;21.006;2023-02-28T19:53:50;202.30;;;63.70;;
68126;SDS011;54931;52.098;21.006;2023-02-28T19:56:18;139.20;;;39.50;;
68126;SDS011;54931;52.098;21.006;2023-02-28T19:58:46;184.90;;;54.20;;
68126;SDS011;54931;52.098;21.006;2023-02-28T20:01:16;231.90;;;65.90;;
68126;SDS011;54931;52.098;21.006;2023-02-28T20:03:49;225.80;;;57.10;;
68126;SDS011;54931;52.098;21.006;2023-02-28T20:06:18;221.70;;;60.50;;
68126;SDS011;54931;52.098;21.006;2023-02-28T20:08:46;266.70;;;71.60;;
68126;SDS011;54931;52.098;21.006;2023-02-28T20:11:15;229.00;;;62.90;;
68126;SDS011;54931;52.098;21.006;2023-02-28T20:13:44;357.40;;;98.80;;
68126;SDS011;54931;52.098;21.006;2023-02-28T20:16:13;487.30;;;139.80;;
68126;SDS011;54931;52.098;21.006;2023-02-28T20:18:42;485.70;;;138.10;;
68126;SDS011;54931;52.098;21.006;2023-02-28T20:21:12;475.10;;;132.80;;
68126;SDS011;54931;52.098;21.006;2023-02-28T20:23:40;555.90;;;166.20;;
68126;SDS011;54931;52.098;21.006;2023-02-28T20:26:10;417.60;;;110.70;;
68126;SDS011;54931;52.098;21.006;2023-02-28T20:28:39;420.60;;;121.20;;
68126;SDS011;54931;52.098;21.006;2023-02-28T20:33:41;421.00;;;116.90;;
68126;SDS011;54931;52.098;21.006;2023-02-28T20:36:10;396.70;;;104.10;;
68126;SDS011;54931;52.098;21.006;2023-02-28T20:38:40;259.40;;;78.90;;
68126;SDS011;54931;52.098;21.006;2023-02-28T20:41:09;268.60;;;75.40;;
68126;SDS011;54931;52.098;21.006;2023-02-28T20:43:39;151.00;;;42.30;;
68126;SDS011;54931;52.098;21.006;2023-02-28T20:46:08;140.90;;;40.70;;
68126;SDS011;54931;52.098;21.006;2023-02-28T20:48:39;128.10;;;37.50;;
68126;SDS011;54931;52.098;21.006;2023-02-28T20:51:07;142.20;;;42.10;;
68126;SDS011;54931;52.098;21.006;2023-02-28T20:53:35;131.70;;;37.00;;
68126;SDS011;54931;52.098;21.006;2023-02-28T20:56:09;124.90;;;36.70;;
68126;SDS011;54931;52.098;21.006;2023-02-28T20:58:45;116.40;;;33.70;;
68126;SDS011;54931;52.098;21.006;2023-02-28T21:01:19;119.30;;;33.80;;
68126;SDS011;54931;52.098;21.006;2023-02-28T21:03:57;118.50;;;34.70;;
68126;SDS011;54931;52.098;21.006;2023-02-28T21:06:29;156.00;;;47.10;;
68126;SDS011;54931;52.098;21.006;2023-02-28T21:08:59;147.30;;;46.30;;
68126;SDS011;54931;52.098;21.006;2023-02-28T21:11:29;160.40;;;48.70;;
68126;SDS011;54931;52.098;21.006;2023-02-28T21:14:03;153.10;;;44.90;;
68126;SDS011;54931;52.098;21.006;2023-02-28T21:16:33;185.30;;;52.20;;
68126;SDS011;54931;52.098;21.006;2023-02-28T21:19:01;144.50;;;44.30;;
68126;SDS011;54931;52.098;21.006;2023-02-28T21:21:34;167.60;;;52.70;;
68126;SDS011;54931;52.098;21.006;2023-02-28T21:24:10;189.40;;;51.80;;
68126;SDS011;54931;52.098;21.006;2023-02-28T21:26:41;166.40;;;48.90;;
68126;SDS011;54931;52.098;21.006;2023-02-28T21:29:11;98.00;;;31.70;;
68126;SDS011;54931;52.098;21.006;2023-02-28T21:31:41;120.60;;;36.90;;
68126;SDS011;54931;52.098;21.006;2023-02-28T21:34:11;152.40;;;45.40;;
68126;SDS011;54931;52.098;21.006;2023-02-28T21:36:42;189.50;;;55.00;;
68126;SDS011;54931;52.098;21.006;2023-02-28T21:39:21;159.90;;;43.50;;
68126;SDS011;54931;52.098;21.006;2023-02-28T21:41:52;159.70;;;45.20;;
68126;SDS011;54931;52.098;21.006;2023-02-28T21:44:20;162.10;;;46.70;;
68126;SDS011;54931;52.098;21.006;2023-02-28T21:46:50;204.50;;;60.10;;
68126;SDS011;54931;52.098;21.006;2023-02-28T21:49:21;156.10;;;45.20;;
68126;SDS011;54931;52.098;21.006;2023-02-28T21:51:49;141.40;;;41.60;;
68126;SDS011;54931;52.098;21.006;2023-02-28T21:54:16;240.30;;;71.70;;
68126;SDS011;54931;52.098;21.006;2023-02-28T21:56:45;286.10;;;81.00;;
68126;SDS011;54931;52.098;21.006;2023-02-28T21:59:12;235.90;;;72.40;;
68126;SDS011;54931;52.098;21.006;2023-02-28T22:01:41;228.70;;;68.70;;
68126;SDS011;54931;52.098;21.006;2023-02-28T22:04:15;202.40;;;56.60;;
68126;SDS011;54931;52.098;21.006;2023-02-28T22:06:50;176.20;;;47.70;;
68126;SDS011;54931;52.098;21.006;2023-02-28T22:09:20;194.80;;;54.30;;
68126;SDS011;54931;52.098;21.006;2023-02-28T22:11:48;208.40;;;57.20;;
68126;SDS011;54931;52.098;21.006;2023-02-28T22:14:17;140.80;;;43.00;;
68126;SDS011;54931;52.098;21.006;2023-02-28T22:16:45;102.30;;;31.90;;
68126;SDS011;54931;52.098;21.006;2023-02-28T22:19:14;88.90;;;26.30;;
68126;SDS011;54931;52.098;21.006;2023-02-28T22:21:43;104.10;;;31.60;;
68126;SDS011;54931;52.098;21.006;2023-02-28T22:24:12;144.30;;;40.10;;
68126;SDS011;54931;52.098;21.006;2023-02-28T22:26:42;72.00;;;23.90;;
68126;SDS011;54931;52.098;21.006;2023-02-28T22:29:10;67.80;;;23.70;;
68126;SDS011;54931;52.098;21.006;2023-02-28T22:31:38;74.80;;;26.20;;
68126;SDS011;54931;52.098;21.006;2023-02-28T22:34:08;70.60;;;26.40;;
68126;SDS011;54931;52.098;21.006;2023-02-28T22:36:40;85.30;;;28.40;;
68126;SDS011;54931;52.098;21.006;2023-02-28T22:39:09;91.20;;;28.80;;